sensor_id;sensor_type;location;lat;lon;timestamp;P1;durP1;ratioP1;P2;durP2;ratioP2
36359;SDS011;22388;52.432;20.662;2023-05-10T00:01:03;14.00;;;6.97;;
36359;SDS011;22388;52.432;20.662;2023-05-10T00:04:27;14.27;;;6.50;;
36359;SDS011;22388;52.432;20.662;2023-05-10T00:07:51;16.17;;;6.68;;
36359;SDS011;22388;52.432;20.662;2023-05-10T00:11:15;17.08;;;6.70;;
36359;SDS011;22388;52.432;20.662;2023-05-10T00:14:39;14.15;;;7.07;;
36359;SDS011;22388;52.432;20.662;2023-05-10T00:18:03;15.52;;;6.50;;
36359;SDS011;22388;52.432;20.662;2023-05-10T00:21:28;13.77;;;6.75;;
36359;SDS011;22388;52.432;20.662;2023-05-10T00:24:52;12.38;;;6.63;;
36359;SDS011;22388;52.432;20.662;2023-05-10T00:28:16;13.25;;;6.85;;
36359;SDS011;22388;52.432;20.662;2023-05-10T00:31:40;15.50;;;6.47;;
36359;SDS011;22388;52.432;20.662;2023-05-10T00:35:04;12.77;;;6.53;;
36359;SDS011;22388;52.432;20.662;2023-05-10T00:38:32;16.45;;;7.47;;
36359;SDS011;22388;52.432;20.662;2023-05-10T00:41:56;13.48;;;6.50;;
36359;SDS011;22388;52.432;20.662;2023-05-10T00:45:21;14.40;;;6.65;;
36359;SDS011;22388;52.432;20.662;2023-05-10T00:48:45;17.25;;;6.85;;
36359;SDS011;22388;52.432;20.662;2023-05-10T00:52:09;12.75;;;6.65;;
36359;SDS011;22388;52.432;20.662;2023-05-10T00:55:34;13.30;;;6.78;;
36359;SDS011;22388;52.432;20.662;2023-05-10T00:58:58;14.55;;;6.45;;
36359;SDS011;22388;52.432;20.662;2023-05-10T01:02:23;15.55;;;6.20;;
36359;SDS011;22388;52.432;20.662;2023-05-10T01:05:48;13.43;;;6.28;;
36359;SDS011;22388;52.432;20.662;2023-05-10T01:09:13;12.55;;;6.07;;
36359;SDS011;22388;52.432;20.662;2023-05-10T01:12:38;12.77;;;6.10;;
36359;SDS011;22388;52.432;20.662;2023-05-10T01:16:03;13.02;;;5.95;;
36359;SDS011;22388;52.432;20.662;2023-05-10T01:19:28;11.60;;;5.70;;
36359;SDS011;22388;52.432;20.662;2023-05-10T01:23:00;12.25;;;5.93;;
36359;SDS011;22388;52.432;20.662;2023-05-10T01:30:30;16.33;;;6.45;;
36359;SDS011;22388;52.432;20.662;2023-05-10T01:34:19;15.50;;;6.00;;
36359;SDS011;22388;52.432;20.662;2023-05-10T01:38:11;14.95;;;6.47;;
36359;SDS011;22388;52.432;20.662;2023-05-10T01:45:21;12.93;;;6.00;;
36359;SDS011;22388;52.432;20.662;2023-05-10T01:49:09;17.13;;;6.53;;
36359;SDS011;22388;52.432;20.662;2023-05-10T01:52:42;12.50;;;6.50;;
36359;SDS011;22388;52.432;20.662;2023-05-10T01:56:07;12.85;;;5.93;;
36359;SDS011;22388;52.432;20.662;2023-05-10T01:59:34;14.23;;;5.90;;
36359;SDS011;22388;52.432;20.662;2023-05-10T02:02:59;23.27;;;6.15;;
36359;SDS011;22388;52.432;20.662;2023-05-10T02:06:23;14.60;;;6.75;;
36359;SDS011;22388;52.432;20.662;2023-05-10T02:09:49;16.52;;;6.45;;
36359;SDS011;22388;52.432;20.662;2023-05-10T02:13:14;13.88;;;6.07;;
36359;SDS011;22388;52.432;20.662;2023-05-10T02:16:40;14.32;;;6.13;;
36359;SDS011;22388;52.432;20.662;2023-05-10T02:20:05;16.40;;;6.43;;
36359;SDS011;22388;52.432;20.662;2023-05-10T02:23:30;11.98;;;5.80;;
36359;SDS011;22388;52.432;20.662;2023-05-10T02:26:54;14.63;;;6.32;;
36359;SDS011;22388;52.432;20.662;2023-05-10T02:30:19;16.15;;;6.40;;
36359;SDS011;22388;52.432;20.662;2023-05-10T02:33:44;12.85;;;6.40;;
36359;SDS011;22388;52.432;20.662;2023-05-10T02:37:11;13.23;;;6.13;;
36359;SDS011;22388;52.432;20.662;2023-05-10T02:40:36;12.15;;;6.00;;
36359;SDS011;22388;52.432;20.662;2023-05-10T02:44:01;15.35;;;6.00;;
36359;SDS011;22388;52.432;20.662;2023-05-10T02:47:28;10.63;;;5.65;;
36359;SDS011;22388;52.432;20.662;2023-05-10T02:50:52;13.02;;;6.07;;
36359;SDS011;22388;52.432;20.662;2023-05-10T02:54:24;12.00;;;5.60;;
36359;SDS011;22388;52.432;20.662;2023-05-10T02:57:54;12.70;;;6.53;;
36359;SDS011;22388;52.432;20.662;2023-05-10T03:01:20;14.05;;;6.53;;
36359;SDS011;22388;52.432;20.662;2023-05-10T03:04:45;12.57;;;5.53;;
36359;SDS011;22388;52.432;20.662;2023-05-10T03:08:09;13.65;;;6.15;;
36359;SDS011;22388;52.432;20.662;2023-05-10T03:15:39;11.75;;;6.20;;
36359;SDS011;22388;52.432;20.662;2023-05-10T03:19:30;19.33;;;6.63;;
36359;SDS011;22388;52.432;20.662;2023-05-10T03:23:21;12.07;;;5.95;;
36359;SDS011;22388;52.432;20.662;2023-05-10T03:26:45;15.63;;;5.85;;
36359;SDS011;22388;52.432;20.662;2023-05-10T03:30:10;14.95;;;6.22;;
36359;SDS011;22388;52.432;20.662;2023-05-10T03:33:35;16.20;;;5.60;;
36359;SDS011;22388;52.432;20.662;2023-05-10T03:36:59;15.27;;;6.28;;
36359;SDS011;22388;52.432;20.662;2023-05-10T03:40:23;13.30;;;6.38;;
36359;SDS011;22388;52.432;20.662;2023-05-10T03:43:47;13.00;;;6.47;;
36359;SDS011;22388;52.432;20.662;2023-05-10T03:47:11;14.75;;;6.13;;
36359;SDS011;22388;52.432;20.662;2023-05-10T03:50:35;13.23;;;6.15;;
36359;SDS011;22388;52.432;20.662;2023-05-10T03:53:59;11.32;;;5.90;;
36359;SDS011;22388;52.432;20.662;2023-05-10T03:57:23;11.75;;;6.28;;
36359;SDS011;22388;52.432;20.662;2023-05-10T04:00:47;13.27;;;6.40;;
36359;SDS011;22388;52.432;20.662;2023-05-10T04:04:12;13.90;;;6.18;;
36359;SDS011;22388;52.432;20.662;2023-05-10T04:07:36;14.85;;;6.55;;
36359;SDS011;22388;52.432;20.662;2023-05-10T04:11:09;11.82;;;5.90;;
36359;SDS011;22388;52.432;20.662;2023-05-10T04:14:36;10.93;;;5.82;;
36359;SDS011;22388;52.432;20.662;2023-05-10T04:18:01;16.88;;;6.13;;
36359;SDS011;22388;52.432;20.662;2023-05-10T04:21:25;12.73;;;6.07;;
36359;SDS011;22388;52.432;20.662;2023-05-10T04:24:49;16.13;;;6.10;;
36359;SDS011;22388;52.432;20.662;2023-05-10T04:28:13;14.15;;;5.97;;
36359;SDS011;22388;52.432;20.662;2023-05-10T04:31:37;11.93;;;6.18;;
36359;SDS011;22388;52.432;20.662;2023-05-10T04:35:01;12.98;;;6.03;;
36359;SDS011;22388;52.432;20.662;2023-05-10T04:38:25;12.60;;;6.03;;
36359;SDS011;22388;52.432;20.662;2023-05-10T04:41:52;12.80;;;5.70;;
36359;SDS011;22388;52.432;20.662;2023-05-10T04:45:16;16.25;;;6.10;;
36359;SDS011;22388;52.432;20.662;2023-05-10T04:48:40;18.85;;;6.22;;
36359;SDS011;22388;52.432;20.662;2023-05-10T04:52:05;13.52;;;5.70;;
36359;SDS011;22388;52.432;20.662;2023-05-10T04:55:34;13.93;;;5.65;;
36359;SDS011;22388;52.432;20.662;2023-05-10T04:58:59;15.38;;;6.47;;
36359;SDS011;22388;52.432;20.662;2023-05-10T05:02:24;14.57;;;6.05;;
36359;SDS011;22388;52.432;20.662;2023-05-10T05:05:48;11.52;;;5.28;;
36359;SDS011;22388;52.432;20.662;2023-05-10T05:09:12;12.18;;;5.65;;
36359;SDS011;22388;52.432;20.662;2023-05-10T05:12:37;15.52;;;5.55;;
36359;SDS011;22388;52.432;20.662;2023-05-10T05:16:01;11.93;;;5.45;;
36359;SDS011;22388;52.432;20.662;2023-05-10T05:19:26;11.18;;;5.60;;
36359;SDS011;22388;52.432;20.662;2023-05-10T05:22:50;10.80;;;4.78;;
36359;SDS011;22388;52.432;20.662;2023-05-10T05:26:14;13.20;;;4.57;;
36359;SDS011;22388;52.432;20.662;2023-05-10T05:29:38;15.02;;;4.95;;
36359;SDS011;22388;52.432;20.662;2023-05-10T05:33:02;10.85;;;5.10;;
36359;SDS011;22388;52.432;20.662;2023-05-10T05:36:27;15.93;;;5.57;;
36359;SDS011;22388;52.432;20.662;2023-05-10T05:39:51;12.93;;;5.40;;
36359;SDS011;22388;52.432;20.662;2023-05-10T05:43:15;10.73;;;5.22;;
36359;SDS011;22388;52.432;20.662;2023-05-10T05:46:39;17.33;;;4.82;;
36359;SDS011;22388;52.432;20.662;2023-05-10T05:50:05;12.70;;;4.75;;
36359;SDS011;22388;52.432;20.662;2023-05-10T05:53:29;13.35;;;4.70;;
36359;SDS011;22388;52.432;20.662;2023-05-10T05:56:54;17.00;;;4.78;;
36359;SDS011;22388;52.432;20.662;2023-05-10T06:00:18;11.88;;;4.35;;
36359;SDS011;22388;52.432;20.662;2023-05-10T06:03:42;11.15;;;4.30;;
36359;SDS011;22388;52.432;20.662;2023-05-10T06:07:06;10.10;;;4.15;;
36359;SDS011;22388;52.432;20.662;2023-05-10T06:10:31;15.20;;;4.55;;
36359;SDS011;22388;52.432;20.662;2023-05-10T06:13:57;19.08;;;4.47;;
36359;SDS011;22388;52.432;20.662;2023-05-10T06:17:21;15.75;;;3.95;;
36359;SDS011;22388;52.432;20.662;2023-05-10T06:20:45;12.27;;;4.60;;
36359;SDS011;22388;52.432;20.662;2023-05-10T06:24:09;15.32;;;4.53;;
36359;SDS011;22388;52.432;20.662;2023-05-10T06:27:34;11.95;;;3.65;;
36359;SDS011;22388;52.432;20.662;2023-05-10T06:30:58;12.63;;;4.00;;
36359;SDS011;22388;52.432;20.662;2023-05-10T06:34:24;13.73;;;3.67;;
36359;SDS011;22388;52.432;20.662;2023-05-10T06:37:49;13.15;;;4.25;;
36359;SDS011;22388;52.432;20.662;2023-05-10T06:41:13;10.88;;;3.72;;
36359;SDS011;22388;52.432;20.662;2023-05-10T06:44:40;12.10;;;3.67;;
36359;SDS011;22388;52.432;20.662;2023-05-10T06:48:06;12.88;;;3.78;;
36359;SDS011;22388;52.432;20.662;2023-05-10T06:51:30;11.05;;;4.30;;
36359;SDS011;22388;52.432;20.662;2023-05-10T06:54:54;9.30;;;3.38;;
36359;SDS011;22388;52.432;20.662;2023-05-10T06:58:18;15.60;;;3.58;;
36359;SDS011;22388;52.432;20.662;2023-05-10T07:01:44;11.88;;;3.22;;
36359;SDS011;22388;52.432;20.662;2023-05-10T07:05:08;11.93;;;2.95;;
36359;SDS011;22388;52.432;20.662;2023-05-10T07:08:35;7.38;;;3.03;;
36359;SDS011;22388;52.432;20.662;2023-05-10T07:12:00;14.75;;;3.03;;
36359;SDS011;22388;52.432;20.662;2023-05-10T07:15:25;12.82;;;3.30;;
36359;SDS011;22388;52.432;20.662;2023-05-10T07:18:49;9.48;;;2.47;;
36359;SDS011;22388;52.432;20.662;2023-05-10T07:22:14;8.20;;;2.10;;
36359;SDS011;22388;52.432;20.662;2023-05-10T07:25:38;9.52;;;2.40;;
36359;SDS011;22388;52.432;20.662;2023-05-10T07:29:02;11.52;;;2.35;;
36359;SDS011;22388;52.432;20.662;2023-05-10T07:32:26;5.68;;;2.40;;
36359;SDS011;22388;52.432;20.662;2023-05-10T07:35:50;8.98;;;2.20;;
36359;SDS011;22388;52.432;20.662;2023-05-10T07:39:14;10.63;;;1.98;;
36359;SDS011;22388;52.432;20.662;2023-05-10T07:42:38;15.43;;;4.18;;
36359;SDS011;22388;52.432;20.662;2023-05-10T07:46:03;9.98;;;2.20;;
36359;SDS011;22388;52.432;20.662;2023-05-10T07:49:27;5.13;;;2.13;;
36359;SDS011;22388;52.432;20.662;2023-05-10T07:52:51;6.95;;;2.10;;
36359;SDS011;22388;52.432;20.662;2023-05-10T07:56:26;9.35;;;2.30;;
36359;SDS011;22388;52.432;20.662;2023-05-10T07:59:50;6.20;;;2.33;;
36359;SDS011;22388;52.432;20.662;2023-05-10T08:03:14;10.50;;;2.92;;
36359;SDS011;22388;52.432;20.662;2023-05-10T08:06:39;8.85;;;2.53;;
36359;SDS011;22388;52.432;20.662;2023-05-10T08:10:03;9.38;;;2.30;;
36359;SDS011;22388;52.432;20.662;2023-05-10T08:13:27;10.95;;;2.25;;
36359;SDS011;22388;52.432;20.662;2023-05-10T08:16:52;7.18;;;2.38;;
36359;SDS011;22388;52.432;20.662;2023-05-10T08:20:17;10.48;;;2.10;;
36359;SDS011;22388;52.432;20.662;2023-05-10T08:23:41;6.95;;;2.05;;
36359;SDS011;22388;52.432;20.662;2023-05-10T08:27:07;6.78;;;2.20;;
36359;SDS011;22388;52.432;20.662;2023-05-10T08:30:31;9.40;;;2.78;;
36359;SDS011;22388;52.432;20.662;2023-05-10T08:33:56;14.35;;;2.55;;
36359;SDS011;22388;52.432;20.662;2023-05-10T08:37:22;7.25;;;2.25;;
36359;SDS011;22388;52.432;20.662;2023-05-10T08:40:46;11.25;;;2.38;;
36359;SDS011;22388;52.432;20.662;2023-05-10T08:44:12;11.57;;;2.80;;
36359;SDS011;22388;52.432;20.662;2023-05-10T08:47:37;9.77;;;1.90;;
36359;SDS011;22388;52.432;20.662;2023-05-10T08:51:01;14.80;;;2.53;;
36359;SDS011;22388;52.432;20.662;2023-05-10T08:54:29;3.83;;;1.95;;
36359;SDS011;22388;52.432;20.662;2023-05-10T08:57:53;11.43;;;2.40;;
36359;SDS011;22388;52.432;20.662;2023-05-10T09:01:18;3.85;;;2.15;;
36359;SDS011;22388;52.432;20.662;2023-05-10T09:04:43;9.80;;;2.13;;
36359;SDS011;22388;52.432;20.662;2023-05-10T09:08:08;10.93;;;2.30;;
36359;SDS011;22388;52.432;20.662;2023-05-10T09:11:32;18.75;;;2.25;;
36359;SDS011;22388;52.432;20.662;2023-05-10T09:14:57;6.10;;;2.45;;
36359;SDS011;22388;52.432;20.662;2023-05-10T09:18:22;10.52;;;2.42;;
36359;SDS011;22388;52.432;20.662;2023-05-10T09:21:46;12.65;;;2.17;;
36359;SDS011;22388;52.432;20.662;2023-05-10T09:25:11;5.15;;;2.10;;
36359;SDS011;22388;52.432;20.662;2023-05-10T09:32:19;6.60;;;2.20;;
36359;SDS011;22388;52.432;20.662;2023-05-10T09:35:43;8.43;;;2.60;;
36359;SDS011;22388;52.432;20.662;2023-05-10T09:39:29;5.68;;;2.25;;
36359;SDS011;22388;52.432;20.662;2023-05-10T09:42:58;6.68;;;2.22;;
36359;SDS011;22388;52.432;20.662;2023-05-10T09:46:22;7.97;;;2.45;;
36359;SDS011;22388;52.432;20.662;2023-05-10T09:49:49;4.43;;;1.90;;
36359;SDS011;22388;52.432;20.662;2023-05-10T09:53:21;8.40;;;2.90;;
36359;SDS011;22388;52.432;20.662;2023-05-10T09:56:46;9.48;;;2.20;;
36359;SDS011;22388;52.432;20.662;2023-05-10T10:00:11;5.72;;;2.50;;
36359;SDS011;22388;52.432;20.662;2023-05-10T10:03:43;6.45;;;2.22;;
36359;SDS011;22388;52.432;20.662;2023-05-10T10:07:07;6.93;;;2.15;;
36359;SDS011;22388;52.432;20.662;2023-05-10T10:10:32;10.85;;;2.42;;
36359;SDS011;22388;52.432;20.662;2023-05-10T10:13:56;8.88;;;2.65;;
36359;SDS011;22388;52.432;20.662;2023-05-10T10:17:20;6.85;;;2.10;;
36359;SDS011;22388;52.432;20.662;2023-05-10T10:20:52;11.30;;;2.75;;
36359;SDS011;22388;52.432;20.662;2023-05-10T10:24:17;9.20;;;2.10;;
36359;SDS011;22388;52.432;20.662;2023-05-10T10:31:39;3.97;;;1.90;;
36359;SDS011;22388;52.432;20.662;2023-05-10T10:35:23;4.25;;;1.98;;
36359;SDS011;22388;52.432;20.662;2023-05-10T10:42:13;10.35;;;2.05;;
36359;SDS011;22388;52.432;20.662;2023-05-10T10:49:49;7.07;;;2.05;;
36359;SDS011;22388;52.432;20.662;2023-05-10T10:53:13;9.15;;;2.20;;
36359;SDS011;22388;52.432;20.662;2023-05-10T10:56:37;7.72;;;2.10;;
36359;SDS011;22388;52.432;20.662;2023-05-10T11:00:18;10.65;;;2.00;;
36359;SDS011;22388;52.432;20.662;2023-05-10T11:07:22;7.43;;;2.10;;
36359;SDS011;22388;52.432;20.662;2023-05-10T11:14:25;3.95;;;2.00;;
36359;SDS011;22388;52.432;20.662;2023-05-10T11:17:53;4.93;;;2.17;;
36359;SDS011;22388;52.432;20.662;2023-05-10T11:21:28;4.57;;;1.85;;
36359;SDS011;22388;52.432;20.662;2023-05-10T11:24:56;4.88;;;1.90;;
36359;SDS011;22388;52.432;20.662;2023-05-10T11:28:21;8.68;;;2.20;;
36359;SDS011;22388;52.432;20.662;2023-05-10T11:31:45;7.47;;;2.03;;
36359;SDS011;22388;52.432;20.662;2023-05-10T11:35:10;8.70;;;2.13;;
36359;SDS011;22388;52.432;20.662;2023-05-10T11:38:45;11.23;;;2.25;;
36359;SDS011;22388;52.432;20.662;2023-05-10T11:42:11;6.43;;;1.90;;
36359;SDS011;22388;52.432;20.662;2023-05-10T11:45:36;8.93;;;2.05;;
36359;SDS011;22388;52.432;20.662;2023-05-10T11:49:00;6.88;;;2.03;;
36359;SDS011;22388;52.432;20.662;2023-05-10T11:52:25;7.00;;;1.95;;
36359;SDS011;22388;52.432;20.662;2023-05-10T11:55:52;12.00;;;2.30;;
36359;SDS011;22388;52.432;20.662;2023-05-10T11:59:17;6.10;;;2.00;;
36359;SDS011;22388;52.432;20.662;2023-05-10T12:02:41;4.43;;;2.10;;
36359;SDS011;22388;52.432;20.662;2023-05-10T12:06:06;9.27;;;2.13;;
36359;SDS011;22388;52.432;20.662;2023-05-10T12:09:30;6.07;;;2.00;;
36359;SDS011;22388;52.432;20.662;2023-05-10T12:12:54;5.28;;;1.90;;
36359;SDS011;22388;52.432;20.662;2023-05-10T12:16:22;7.40;;;2.15;;
36359;SDS011;22388;52.432;20.662;2023-05-10T12:19:46;13.32;;;2.33;;
36359;SDS011;22388;52.432;20.662;2023-05-10T12:23:11;6.72;;;2.47;;
36359;SDS011;22388;52.432;20.662;2023-05-10T12:26:37;6.25;;;2.10;;
36359;SDS011;22388;52.432;20.662;2023-05-10T12:30:01;10.30;;;2.78;;
36359;SDS011;22388;52.432;20.662;2023-05-10T12:33:26;5.75;;;1.80;;
36359;SDS011;22388;52.432;20.662;2023-05-10T12:37:01;7.65;;;2.35;;
36359;SDS011;22388;52.432;20.662;2023-05-10T12:40:26;10.43;;;2.13;;
36359;SDS011;22388;52.432;20.662;2023-05-10T12:43:50;6.22;;;2.28;;
36359;SDS011;22388;52.432;20.662;2023-05-10T12:47:15;12.68;;;2.22;;
36359;SDS011;22388;52.432;20.662;2023-05-10T12:50:39;18.77;;;2.67;;
36359;SDS011;22388;52.432;20.662;2023-05-10T12:54:03;6.65;;;2.05;;
36359;SDS011;22388;52.432;20.662;2023-05-10T12:57:28;9.23;;;1.90;;
36359;SDS011;22388;52.432;20.662;2023-05-10T13:04:35;7.53;;;1.80;;
36359;SDS011;22388;52.432;20.662;2023-05-10T13:07:59;6.20;;;2.10;;
36359;SDS011;22388;52.432;20.662;2023-05-10T13:11:23;12.60;;;2.30;;
36359;SDS011;22388;52.432;20.662;2023-05-10T13:14:47;8.95;;;1.95;;
36359;SDS011;22388;52.432;20.662;2023-05-10T13:18:11;7.20;;;2.10;;
36359;SDS011;22388;52.432;20.662;2023-05-10T13:21:36;8.48;;;1.80;;
36359;SDS011;22388;52.432;20.662;2023-05-10T13:25:01;7.65;;;2.28;;
36359;SDS011;22388;52.432;20.662;2023-05-10T13:28:25;4.13;;;2.00;;
36359;SDS011;22388;52.432;20.662;2023-05-10T13:31:49;3.53;;;1.75;;
36359;SDS011;22388;52.432;20.662;2023-05-10T13:35:13;6.32;;;1.95;;
36359;SDS011;22388;52.432;20.662;2023-05-10T13:38:39;9.20;;;2.10;;
36359;SDS011;22388;52.432;20.662;2023-05-10T13:42:03;6.00;;;1.83;;
36359;SDS011;22388;52.432;20.662;2023-05-10T13:45:27;5.43;;;1.70;;
36359;SDS011;22388;52.432;20.662;2023-05-10T13:48:52;7.53;;;1.90;;
36359;SDS011;22388;52.432;20.662;2023-05-10T13:52:16;7.72;;;1.77;;
36359;SDS011;22388;52.432;20.662;2023-05-10T13:55:41;7.65;;;1.98;;
36359;SDS011;22388;52.432;20.662;2023-05-10T13:59:08;6.00;;;1.85;;
36359;SDS011;22388;52.432;20.662;2023-05-10T14:02:33;9.52;;;2.03;;
36359;SDS011;22388;52.432;20.662;2023-05-10T14:05:57;5.68;;;2.35;;
36359;SDS011;22388;52.432;20.662;2023-05-10T14:09:21;15.18;;;2.10;;
36359;SDS011;22388;52.432;20.662;2023-05-10T14:12:45;4.97;;;2.17;;
36359;SDS011;22388;52.432;20.662;2023-05-10T14:16:10;4.85;;;1.95;;
36359;SDS011;22388;52.432;20.662;2023-05-10T14:19:34;6.32;;;2.67;;
36359;SDS011;22388;52.432;20.662;2023-05-10T14:22:59;7.63;;;2.03;;
36359;SDS011;22388;52.432;20.662;2023-05-10T14:26:24;6.75;;;2.38;;
36359;SDS011;22388;52.432;20.662;2023-05-10T14:29:50;5.85;;;1.80;;
36359;SDS011;22388;52.432;20.662;2023-05-10T14:33:14;6.22;;;2.20;;
36359;SDS011;22388;52.432;20.662;2023-05-10T14:36:38;10.55;;;2.10;;
36359;SDS011;22388;52.432;20.662;2023-05-10T14:40:02;7.63;;;2.30;;
36359;SDS011;22388;52.432;20.662;2023-05-10T14:43:26;11.35;;;2.08;;
36359;SDS011;22388;52.432;20.662;2023-05-10T14:46:51;5.65;;;1.98;;
36359;SDS011;22388;52.432;20.662;2023-05-10T14:50:15;5.32;;;2.00;;
36359;SDS011;22388;52.432;20.662;2023-05-10T14:53:39;7.75;;;2.00;;
36359;SDS011;22388;52.432;20.662;2023-05-10T14:57:03;3.05;;;1.67;;
36359;SDS011;22388;52.432;20.662;2023-05-10T15:00:28;6.13;;;1.70;;
36359;SDS011;22388;52.432;20.662;2023-05-10T15:03:52;16.00;;;2.38;;
36359;SDS011;22388;52.432;20.662;2023-05-10T15:07:16;8.80;;;1.95;;
36359;SDS011;22388;52.432;20.662;2023-05-10T15:10:42;3.80;;;2.00;;
36359;SDS011;22388;52.432;20.662;2023-05-10T15:14:06;5.88;;;1.90;;
36359;SDS011;22388;52.432;20.662;2023-05-10T15:17:31;6.20;;;2.10;;
36359;SDS011;22388;52.432;20.662;2023-05-10T15:20:55;9.57;;;1.95;;
36359;SDS011;22388;52.432;20.662;2023-05-10T15:24:20;5.00;;;1.98;;
36359;SDS011;22388;52.432;20.662;2023-05-10T15:27:45;9.25;;;2.20;;
36359;SDS011;22388;52.432;20.662;2023-05-10T15:31:09;4.80;;;1.80;;
36359;SDS011;22388;52.432;20.662;2023-05-10T15:34:33;3.80;;;1.60;;
36359;SDS011;22388;52.432;20.662;2023-05-10T15:37:58;6.90;;;2.10;;
36359;SDS011;22388;52.432;20.662;2023-05-10T15:41:22;7.70;;;2.13;;
36359;SDS011;22388;52.432;20.662;2023-05-10T15:44:46;11.38;;;2.47;;
36359;SDS011;22388;52.432;20.662;2023-05-10T15:48:10;4.53;;;1.85;;
36359;SDS011;22388;52.432;20.662;2023-05-10T15:51:34;9.15;;;1.70;;
36359;SDS011;22388;52.432;20.662;2023-05-10T15:54:58;10.60;;;2.25;;
36359;SDS011;22388;52.432;20.662;2023-05-10T15:58:23;12.60;;;2.38;;
36359;SDS011;22388;52.432;20.662;2023-05-10T16:01:47;14.55;;;1.85;;
36359;SDS011;22388;52.432;20.662;2023-05-10T16:05:11;10.55;;;2.25;;
36359;SDS011;22388;52.432;20.662;2023-05-10T16:08:35;8.02;;;2.08;;
36359;SDS011;22388;52.432;20.662;2023-05-10T16:11:59;5.82;;;2.20;;
36359;SDS011;22388;52.432;20.662;2023-05-10T16:15:24;10.10;;;2.00;;
36359;SDS011;22388;52.432;20.662;2023-05-10T16:18:48;4.50;;;1.67;;
36359;SDS011;22388;52.432;20.662;2023-05-10T16:22:12;6.45;;;1.98;;
36359;SDS011;22388;52.432;20.662;2023-05-10T16:25:39;3.97;;;1.73;;
36359;SDS011;22388;52.432;20.662;2023-05-10T16:29:05;11.65;;;2.03;;
36359;SDS011;22388;52.432;20.662;2023-05-10T16:32:30;7.22;;;2.20;;
36359;SDS011;22388;52.432;20.662;2023-05-10T16:35:54;11.38;;;2.00;;
36359;SDS011;22388;52.432;20.662;2023-05-10T16:39:18;3.75;;;1.70;;
36359;SDS011;22388;52.432;20.662;2023-05-10T16:42:42;5.45;;;1.90;;
36359;SDS011;22388;52.432;20.662;2023-05-10T16:46:10;5.50;;;1.90;;
36359;SDS011;22388;52.432;20.662;2023-05-10T16:49:36;7.72;;;1.98;;
36359;SDS011;22388;52.432;20.662;2023-05-10T16:53:00;6.28;;;2.03;;
36359;SDS011;22388;52.432;20.662;2023-05-10T16:56:25;4.53;;;2.20;;
36359;SDS011;22388;52.432;20.662;2023-05-10T16:59:49;5.45;;;1.92;;
36359;SDS011;22388;52.432;20.662;2023-05-10T17:03:13;5.47;;;1.90;;
36359;SDS011;22388;52.432;20.662;2023-05-10T17:06:38;6.15;;;1.50;;
36359;SDS011;22388;52.432;20.662;2023-05-10T17:10:02;4.30;;;2.10;;
36359;SDS011;22388;52.432;20.662;2023-05-10T17:13:27;6.88;;;2.13;;
36359;SDS011;22388;52.432;20.662;2023-05-10T17:16:51;7.97;;;2.17;;
36359;SDS011;22388;52.432;20.662;2023-05-10T17:20:15;4.30;;;1.90;;
36359;SDS011;22388;52.432;20.662;2023-05-10T17:23:40;9.43;;;2.00;;
36359;SDS011;22388;52.432;20.662;2023-05-10T17:27:04;4.60;;;2.00;;
36359;SDS011;22388;52.432;20.662;2023-05-10T17:30:29;9.60;;;2.47;;
36359;SDS011;22388;52.432;20.662;2023-05-10T17:33:54;5.53;;;2.40;;
36359;SDS011;22388;52.432;20.662;2023-05-10T17:37:18;7.82;;;2.20;;
36359;SDS011;22388;52.432;20.662;2023-05-10T17:40:42;4.65;;;1.60;;
36359;SDS011;22388;52.432;20.662;2023-05-10T17:44:06;7.88;;;2.00;;
36359;SDS011;22388;52.432;20.662;2023-05-10T17:47:31;9.77;;;1.98;;
36359;SDS011;22388;52.432;20.662;2023-05-10T17:50:55;4.38;;;1.90;;
36359;SDS011;22388;52.432;20.662;2023-05-10T17:54:19;31.50;;;3.38;;
36359;SDS011;22388;52.432;20.662;2023-05-10T17:57:43;6.20;;;2.38;;
36359;SDS011;22388;52.432;20.662;2023-05-10T18:01:07;6.22;;;2.13;;
36359;SDS011;22388;52.432;20.662;2023-05-10T18:04:31;8.18;;;2.13;;
36359;SDS011;22388;52.432;20.662;2023-05-10T18:07:55;7.28;;;2.00;;
36359;SDS011;22388;52.432;20.662;2023-05-10T18:11:20;9.73;;;2.10;;
36359;SDS011;22388;52.432;20.662;2023-05-10T18:18:11;6.93;;;2.42;;
36359;SDS011;22388;52.432;20.662;2023-05-10T18:21:36;6.60;;;2.30;;
36359;SDS011;22388;52.432;20.662;2023-05-10T18:25:00;11.88;;;3.15;;
36359;SDS011;22388;52.432;20.662;2023-05-10T18:28:25;9.65;;;3.17;;
36359;SDS011;22388;52.432;20.662;2023-05-10T18:31:49;15.15;;;3.40;;
36359;SDS011;22388;52.432;20.662;2023-05-10T18:35:13;8.25;;;2.97;;
36359;SDS011;22388;52.432;20.662;2023-05-10T18:38:38;5.32;;;2.90;;
36359;SDS011;22388;52.432;20.662;2023-05-10T18:42:02;9.68;;;3.50;;
36359;SDS011;22388;52.432;20.662;2023-05-10T18:45:27;14.30;;;3.17;;
36359;SDS011;22388;52.432;20.662;2023-05-10T18:48:51;8.85;;;2.70;;
36359;SDS011;22388;52.432;20.662;2023-05-10T18:52:15;8.07;;;2.65;;
36359;SDS011;22388;52.432;20.662;2023-05-10T18:55:39;9.82;;;3.17;;
36359;SDS011;22388;52.432;20.662;2023-05-10T18:59:08;9.23;;;4.28;;
36359;SDS011;22388;52.432;20.662;2023-05-10T19:02:37;8.93;;;3.95;;
36359;SDS011;22388;52.432;20.662;2023-05-10T19:06:01;7.32;;;3.25;;
36359;SDS011;22388;52.432;20.662;2023-05-10T19:09:27;7.25;;;2.60;;
36359;SDS011;22388;52.432;20.662;2023-05-10T19:12:51;7.22;;;3.03;;
36359;SDS011;22388;52.432;20.662;2023-05-10T19:16:15;7.00;;;3.08;;
36359;SDS011;22388;52.432;20.662;2023-05-10T19:19:40;9.50;;;2.50;;
36359;SDS011;22388;52.432;20.662;2023-05-10T19:23:05;8.05;;;3.13;;
36359;SDS011;22388;52.432;20.662;2023-05-10T19:26:29;6.00;;;2.97;;
36359;SDS011;22388;52.432;20.662;2023-05-10T19:29:55;10.30;;;2.70;;
36359;SDS011;22388;52.432;20.662;2023-05-10T19:33:19;12.02;;;2.92;;
36359;SDS011;22388;52.432;20.662;2023-05-10T19:36:44;8.48;;;2.53;;
36359;SDS011;22388;52.432;20.662;2023-05-10T19:40:14;7.93;;;3.08;;
36359;SDS011;22388;52.432;20.662;2023-05-10T19:43:38;6.75;;;2.67;;
36359;SDS011;22388;52.432;20.662;2023-05-10T19:47:02;11.18;;;3.10;;
36359;SDS011;22388;52.432;20.662;2023-05-10T19:50:27;10.90;;;3.40;;
36359;SDS011;22388;52.432;20.662;2023-05-10T19:53:51;8.45;;;2.70;;
36359;SDS011;22388;52.432;20.662;2023-05-10T19:57:15;8.35;;;3.13;;
36359;SDS011;22388;52.432;20.662;2023-05-10T20:00:41;6.95;;;2.65;;
36359;SDS011;22388;52.432;20.662;2023-05-10T20:04:05;8.05;;;3.00;;
36359;SDS011;22388;52.432;20.662;2023-05-10T20:07:29;10.65;;;3.30;;
36359;SDS011;22388;52.432;20.662;2023-05-10T20:10:53;7.45;;;3.22;;
36359;SDS011;22388;52.432;20.662;2023-05-10T20:14:17;8.30;;;3.45;;
36359;SDS011;22388;52.432;20.662;2023-05-10T20:17:43;6.35;;;3.67;;
36359;SDS011;22388;52.432;20.662;2023-05-10T20:21:09;10.82;;;3.15;;
36359;SDS011;22388;52.432;20.662;2023-05-10T20:24:33;8.55;;;3.40;;
36359;SDS011;22388;52.432;20.662;2023-05-10T20:27:57;11.43;;;3.30;;
36359;SDS011;22388;52.432;20.662;2023-05-10T20:31:24;9.25;;;3.60;;
36359;SDS011;22388;52.432;20.662;2023-05-10T20:34:48;11.43;;;3.95;;
36359;SDS011;22388;52.432;20.662;2023-05-10T20:38:14;11.73;;;4.13;;
36359;SDS011;22388;52.432;20.662;2023-05-10T20:41:39;8.98;;;4.63;;
36359;SDS011;22388;52.432;20.662;2023-05-10T20:45:03;19.35;;;5.30;;
36359;SDS011;22388;52.432;20.662;2023-05-10T20:48:30;9.15;;;4.40;;
36359;SDS011;22388;52.432;20.662;2023-05-10T20:51:54;13.80;;;4.78;;